Time,TemperatureF,DewpointF,PressureIn,WindDirection,WindDirectionDegrees,WindSpeedMPH,WindSpeedGustMPH,Humidity,HourlyPrecipIn,Conditions,Clouds,dailyrainin,SoftwareType,DateUTC
2013-11-18 06:00:00,40.0,-99.9,29.37,WSW,250,34.0,-999.0,-999,-99.99,,,-99.99,,2013-11-18 11:00:00,
2013-11-18 06:53:00,40.0,-99.9,29.37,WSW,250,34.0,-999.0,-999,-99.99,,,-99.99,,2013-11-18 11:53:00,
2013-11-18 07:00:00,40.0,-99.9,29.39,West,260,46.0,-999.0,-999,-99.99,,,-99.99,,2013-11-18 12:00:00,
2013-11-18 07:22:00,40.0,-99.9,29.39,West,260,46.0,-999.0,-999,-99.99,,,-99.99,,2013-11-18 12:22:00,
2013-11-18 07:32:00,40.0,-99.9,29.39,West,260,46.0,-999.0,-999,-99.99,,,-99.99,,2013-11-18 12:32:00,
2013-11-18 07:42:00,40.0,-99.9,29.39,West,260,46.0,-999.0,-999,-99.99,,,-99.99,,2013-11-18 12:42:00,
2013-11-18 07:52:00,40.0,-99.9,29.39,West,260,46.0,-999.0,-999,-99.99,,,-99.99,,2013-11-18 12:52:00,
2013-11-18 08:00:00,40.0,-99.9,29.42,West,260,52.0,-999.0,-999,-99.99,,,-99.99,,2013-11-18 13:00:00,
2013-11-18 08:42:00,40.0,-99.9,29.42,West,260,52.0,-999.0,-999,-99.99,,,-99.99,,2013-11-18 13:42:00,
2013-11-18 08:52:00,40.0,-99.9,29.42,West,260,52.0,-999.0,-999,-99.99,,,-99.99,,2013-11-18 13:52:00,
2013-11-18 09:00:00,40.0,-99.9,29.44,West,260,48.0,-999.0,-999,-99.99,,,-99.99,,2013-11-18 14:00:00,
2013-11-18 09:42:00,40.0,-99.9,29.44,West,260,48.0,-999.0,-999,-99.99,,,-99.99,,2013-11-18 14:42:00,
2013-11-18 09:52:00,40.0,-99.9,29.44,West,260,48.0,-999.0,-999,-99.99,,,-99.99,,2013-11-18 14:52:00,
2013-11-18 10:00:00,40.0,-99.9,29.49,WSW,250,44.0,-999.0,-999,-99.99,,,-99.99,,2013-11-18 15:00:00,
2013-11-18 10:22:00,40.0,-99.9,29.49,WSW,250,44.0,-999.0,-999,-99.99,,,-99.99,,2013-11-18 15:22:00,
2013-11-18 10:34:00,40.0,-99.9,29.49,WSW,250,44.0,-999.0,-999,-99.99,,,-99.99,,2013-11-18 15:34:00,
2013-11-18 10:43:00,40.0,-99.9,29.49,WSW,250,44.0,-999.0,-999,-99.99,,,-99.99,,2013-11-18 15:43:00,
2013-11-18 10:54:00,40.0,-99.9,29.49,WSW,250,44.0,-999.0,-999,-99.99,,,-99.99,,2013-11-18 15:54:00,
2013-11-18 11:00:00,39.0,-99.9,29.51,West,280,46.0,-999.0,-999,-99.99,,,-99.99,,2013-11-18 16:00:00,
2013-11-18 11:43:00,39.0,-99.9,29.51,West,280,46.0,-999.0,-999,-99.99,,,-99.99,,2013-11-18 16:43:00,
2013-11-18 11:53:00,39.0,-99.9,29.51,West,280,46.0,-999.0,-999,-99.99,,,-99.99,,2013-11-18 16:53:00,
2013-11-18 18:00:00,34.0,-99.9,29.84,WNW,290,58.0,-999.0,-999,-99.99,,,-99.99,,2013-11-18 23:00:00,
2013-11-18 18:42:00,34.0,-99.9,29.84,WNW,290,58.0,-999.0,-999,-99.99,,,-99.99,,2013-11-18 23:42:00,
2013-11-18 18:52:00,34.0,-99.9,29.84,WNW,290,58.0,-999.0,-999,-99.99,,,-99.99,,2013-11-18 23:52:00,
2013-11-18 19:00:00,33.0,-99.9,29.86,WNW,300,46.0,-999.0,-999,-99.99,,,-99.99,,2013-11-19 00:00:00,
2013-11-18 19:42:00,33.0,-99.9,29.86,WNW,300,46.0,-999.0,-999,-99.99,,,-99.99,,2013-11-19 00:42:00,
2013-11-18 19:52:00,33.0,-99.9,29.86,WNW,300,46.0,-999.0,-999,-99.99,,,-99.99,,2013-11-19 00:52:00,
2013-11-18 20:00:00,34.0,-99.9,29.88,WNW,300,52.0,-999.0,-999,-99.99,,,-99.99,,2013-11-19 01:00:00,
2013-11-18 20:22:00,34.0,-99.9,29.88,WNW,300,52.0,-999.0,-999,-99.99,,,-99.99,,2013-11-19 01:22:00,
2013-11-18 20:32:00,34.0,-99.9,29.88,WNW,300,52.0,-999.0,-999,-99.99,,,-99.99,,2013-11-19 01:32:00,
2013-11-18 20:42:00,34.0,-99.9,29.88,WNW,300,52.0,-999.0,-999,-99.99,,,-99.99,,2013-11-19 01:42:00,
2013-11-18 20:52:00,34.0,-99.9,29.88,WNW,300,52.0,-999.0,-999,-99.99,,,-99.99,,2013-11-19 01:52:00,